sensor_id;sensor_type;location;lat;lon;timestamp;P1;durP1;ratioP1;P2;durP2;ratioP2
31764;SDS011;18338;53.240;8.798;2023-02-20T00:00:15;4.13;;;1.67;;
31764;SDS011;18338;53.240;8.798;2023-02-20T00:02:46;2.20;;;1.67;;
31764;SDS011;18338;53.240;8.798;2023-02-20T00:05:14;6.35;;;2.10;;
31764;SDS011;18338;53.240;8.798;2023-02-20T00:07:41;5.20;;;1.90;;
31764;SDS011;18338;53.240;8.798;2023-02-20T00:10:08;3.17;;;1.60;;
31764;SDS011;18338;53.240;8.798;2023-02-20T00:12:35;3.55;;;2.22;;
31764;SDS011;18338;53.240;8.798;2023-02-20T00:15:03;2.95;;;2.00;;
31764;SDS011;18338;53.240;8.798;2023-02-20T00:17:30;3.43;;;1.90;;
31764;SDS011;18338;53.240;8.798;2023-02-20T00:19:57;5.25;;;2.17;;
31764;SDS011;18338;53.240;8.798;2023-02-20T00:22:24;4.13;;;1.73;;
31764;SDS011;18338;53.240;8.798;2023-02-20T00:24:51;3.47;;;2.20;;
31764;SDS011;18338;53.240;8.798;2023-02-20T00:27:18;2.97;;;1.75;;
31764;SDS011;18338;53.240;8.798;2023-02-20T00:29:45;3.33;;;1.40;;
31764;SDS011;18338;53.240;8.798;2023-02-20T00:32:12;4.10;;;1.75;;
31764;SDS011;18338;53.240;8.798;2023-02-20T00:34:39;4.00;;;2.10;;
31764;SDS011;18338;53.240;8.798;2023-02-20T00:37:06;3.17;;;2.58;;
31764;SDS011;18338;53.240;8.798;2023-02-20T00:39:33;4.47;;;2.60;;
31764;SDS011;18338;53.240;8.798;2023-02-20T00:42:00;4.28;;;2.10;;
31764;SDS011;18338;53.240;8.798;2023-02-20T00:44:27;3.88;;;2.28;;
31764;SDS011;18338;53.240;8.798;2023-02-20T00:46:54;4.10;;;2.45;;
31764;SDS011;18338;53.240;8.798;2023-02-20T00:49:21;3.77;;;2.20;;
31764;SDS011;18338;53.240;8.798;2023-02-20T00:51:48;3.38;;;2.28;;
31764;SDS011;18338;53.240;8.798;2023-02-20T00:54:15;5.03;;;2.60;;
31764;SDS011;18338;53.240;8.798;2023-02-20T00:56:42;3.63;;;2.60;;
31764;SDS011;18338;53.240;8.798;2023-02-20T00:59:09;4.88;;;2.75;;
31764;SDS011;18338;53.240;8.798;2023-02-20T01:01:36;4.05;;;2.50;;
31764;SDS011;18338;53.240;8.798;2023-02-20T01:04:02;3.17;;;2.88;;
31764;SDS011;18338;53.240;8.798;2023-02-20T01:06:29;4.55;;;2.85;;
31764;SDS011;18338;53.240;8.798;2023-02-20T01:08:56;4.10;;;2.75;;
31764;SDS011;18338;53.240;8.798;2023-02-20T01:11:23;4.15;;;3.25;;
31764;SDS011;18338;53.240;8.798;2023-02-20T01:13:49;5.60;;;3.20;;
31764;SDS011;18338;53.240;8.798;2023-02-20T01:16:16;3.72;;;3.03;;
31764;SDS011;18338;53.240;8.798;2023-02-20T01:18:43;4.60;;;3.20;;
31764;SDS011;18338;53.240;8.798;2023-02-20T01:21:10;5.65;;;3.08;;
31764;SDS011;18338;53.240;8.798;2023-02-20T01:23:36;5.93;;;3.25;;
31764;SDS011;18338;53.240;8.798;2023-02-20T01:26:03;5.45;;;3.10;;
31764;SDS011;18338;53.240;8.798;2023-02-20T01:28:30;4.10;;;3.08;;
31764;SDS011;18338;53.240;8.798;2023-02-20T01:30:57;5.00;;;3.47;;
31764;SDS011;18338;53.240;8.798;2023-02-20T01:33:23;4.60;;;3.60;;
31764;SDS011;18338;53.240;8.798;2023-02-20T01:35:50;3.92;;;3.58;;
31764;SDS011;18338;53.240;8.798;2023-02-20T01:38:17;5.88;;;3.60;;
31764;SDS011;18338;53.240;8.798;2023-02-20T01:40:47;18.45;;;3.60;;
31764;SDS011;18338;53.240;8.798;2023-02-20T01:43:15;4.22;;;3.22;;
31764;SDS011;18338;53.240;8.798;2023-02-20T01:45:42;5.38;;;3.75;;
31764;SDS011;18338;53.240;8.798;2023-02-20T01:48:20;5.13;;;3.20;;
31764;SDS011;18338;53.240;8.798;2023-02-20T01:50:49;3.97;;;3.30;;
31764;SDS011;18338;53.240;8.798;2023-02-20T01:53:19;4.60;;;3.50;;
31764;SDS011;18338;53.240;8.798;2023-02-20T01:55:50;4.85;;;3.67;;
31764;SDS011;18338;53.240;8.798;2023-02-20T01:58:34;4.22;;;3.60;;
31764;SDS011;18338;53.240;8.798;2023-02-20T02:01:04;4.25;;;3.63;;
31764;SDS011;18338;53.240;8.798;2023-02-20T02:03:33;3.97;;;3.55;;
31764;SDS011;18338;53.240;8.798;2023-02-20T02:06:04;5.35;;;3.45;;
31764;SDS011;18338;53.240;8.798;2023-02-20T02:08:33;4.80;;;3.40;;
31764;SDS011;18338;53.240;8.798;2023-02-20T02:11:04;5.15;;;3.70;;
31764;SDS011;18338;53.240;8.798;2023-02-20T02:13:42;4.45;;;3.42;;
31764;SDS011;18338;53.240;8.798;2023-02-20T02:25:10;4.50;;;3.17;;
31764;SDS011;18338;53.240;8.798;2023-02-20T02:28:15;3.92;;;3.38;;
31764;SDS011;18338;53.240;8.798;2023-02-20T02:39:41;5.43;;;4.00;;
31764;SDS011;18338;53.240;8.798;2023-02-20T02:45:02;5.55;;;3.90;;
31764;SDS011;18338;53.240;8.798;2023-02-20T02:47:54;4.90;;;3.85;;
31764;SDS011;18338;53.240;8.798;2023-02-20T02:50:30;5.75;;;3.92;;
31764;SDS011;18338;53.240;8.798;2023-02-20T02:53:02;4.13;;;3.42;;
31764;SDS011;18338;53.240;8.798;2023-02-20T02:55:30;5.35;;;4.20;;
31764;SDS011;18338;53.240;8.798;2023-02-20T02:57:59;5.53;;;3.97;;
31764;SDS011;18338;53.240;8.798;2023-02-20T03:03:22;4.70;;;3.78;;
31764;SDS011;18338;53.240;8.798;2023-02-20T03:06:36;6.65;;;4.97;;
31764;SDS011;18338;53.240;8.798;2023-02-20T03:08:53;5.78;;;4.95;;
31764;SDS011;18338;53.240;8.798;2023-02-20T03:11:25;5.70;;;4.75;;
31764;SDS011;18338;53.240;8.798;2023-02-20T03:14:07;5.45;;;4.93;;
31764;SDS011;18338;53.240;8.798;2023-02-20T03:17:12;5.85;;;5.25;;
31764;SDS011;18338;53.240;8.798;2023-02-20T03:20:01;5.72;;;4.72;;
31764;SDS011;18338;53.240;8.798;2023-02-20T03:22:35;8.30;;;5.72;;
31764;SDS011;18338;53.240;8.798;2023-02-20T03:27:58;7.57;;;5.13;;
31764;SDS011;18338;53.240;8.798;2023-02-20T03:33:18;9.50;;;5.95;;
31764;SDS011;18338;53.240;8.798;2023-02-20T03:36:11;7.22;;;5.05;;
31764;SDS011;18338;53.240;8.798;2023-02-20T03:39:04;7.75;;;5.95;;
31764;SDS011;18338;53.240;8.798;2023-02-20T03:41:55;10.98;;;6.32;;
31764;SDS011;18338;53.240;8.798;2023-02-20T03:44:42;9.40;;;6.70;;
31764;SDS011;18338;53.240;8.798;2023-02-20T03:47:10;10.05;;;6.15;;
31764;SDS011;18338;53.240;8.798;2023-02-20T03:49:41;9.05;;;6.47;;
31764;SDS011;18338;53.240;8.798;2023-02-20T03:52:09;10.25;;;7.47;;
31764;SDS011;18338;53.240;8.798;2023-02-20T03:54:36;8.18;;;6.35;;
31764;SDS011;18338;53.240;8.798;2023-02-20T03:57:06;8.80;;;6.47;;
31764;SDS011;18338;53.240;8.798;2023-02-20T03:59:39;11.15;;;7.07;;
31764;SDS011;18338;53.240;8.798;2023-02-20T04:02:14;10.50;;;6.60;;
31764;SDS011;18338;53.240;8.798;2023-02-20T04:04:50;8.75;;;6.38;;
31764;SDS011;18338;53.240;8.798;2023-02-20T04:07:24;9.70;;;7.60;;
31764;SDS011;18338;53.240;8.798;2023-02-20T04:09:56;8.75;;;6.90;;
31764;SDS011;18338;53.240;8.798;2023-02-20T04:12:28;11.15;;;7.82;;
31764;SDS011;18338;53.240;8.798;2023-02-20T04:14:59;11.77;;;7.85;;
31764;SDS011;18338;53.240;8.798;2023-02-20T04:17:31;11.77;;;6.55;;
31764;SDS011;18338;53.240;8.798;2023-02-20T04:20:02;8.82;;;7.00;;
31764;SDS011;18338;53.240;8.798;2023-02-20T04:22:30;11.57;;;7.47;;
31764;SDS011;18338;53.240;8.798;2023-02-20T04:25:03;10.02;;;6.90;;
31764;SDS011;18338;53.240;8.798;2023-02-20T04:27:38;10.48;;;7.47;;
31764;SDS011;18338;53.240;8.798;2023-02-20T04:30:05;9.57;;;6.35;;
31764;SDS011;18338;53.240;8.798;2023-02-20T04:32:32;10.45;;;7.53;;
31764;SDS011;18338;53.240;8.798;2023-02-20T04:34:59;10.82;;;7.03;;
31764;SDS011;18338;53.240;8.798;2023-02-20T04:37:26;9.90;;;7.25;;
31764;SDS011;18338;53.240;8.798;2023-02-20T04:39:52;10.88;;;7.88;;
31764;SDS011;18338;53.240;8.798;2023-02-20T04:42:19;9.98;;;6.93;;
31764;SDS011;18338;53.240;8.798;2023-02-20T04:44:46;11.00;;;7.88;;
31764;SDS011;18338;53.240;8.798;2023-02-20T04:47:14;10.43;;;7.50;;
31764;SDS011;18338;53.240;8.798;2023-02-20T04:49:42;10.60;;;7.40;;
31764;SDS011;18338;53.240;8.798;2023-02-20T04:52:09;10.65;;;8.45;;
31764;SDS011;18338;53.240;8.798;2023-02-20T04:54:36;10.52;;;7.35;;
31764;SDS011;18338;53.240;8.798;2023-02-20T04:57:03;11.40;;;7.32;;
31764;SDS011;18338;53.240;8.798;2023-02-20T04:59:29;14.68;;;8.40;;
31764;SDS011;18338;53.240;8.798;2023-02-20T05:01:56;13.30;;;8.20;;
31764;SDS011;18338;53.240;8.798;2023-02-20T05:04:26;11.80;;;8.70;;
31764;SDS011;18338;53.240;8.798;2023-02-20T05:06:54;12.98;;;7.57;;
31764;SDS011;18338;53.240;8.798;2023-02-20T05:09:22;11.40;;;8.32;;
31764;SDS011;18338;53.240;8.798;2023-02-20T05:11:49;12.07;;;8.70;;
31764;SDS011;18338;53.240;8.798;2023-02-20T05:14:17;13.93;;;9.13;;
31764;SDS011;18338;53.240;8.798;2023-02-20T05:16:44;14.85;;;8.48;;
31764;SDS011;18338;53.240;8.798;2023-02-20T05:19:15;12.65;;;9.10;;
31764;SDS011;18338;53.240;8.798;2023-02-20T05:21:43;9.60;;;7.32;;
31764;SDS011;18338;53.240;8.798;2023-02-20T05:24:29;12.45;;;8.13;;
31764;SDS011;18338;53.240;8.798;2023-02-20T05:26:57;13.10;;;9.73;;
31764;SDS011;18338;53.240;8.798;2023-02-20T05:29:24;11.15;;;9.70;;
31764;SDS011;18338;53.240;8.798;2023-02-20T05:31:51;12.55;;;9.88;;
31764;SDS011;18338;53.240;8.798;2023-02-20T05:34:18;14.88;;;9.10;;
31764;SDS011;18338;53.240;8.798;2023-02-20T05:36:48;14.73;;;10.10;;
31764;SDS011;18338;53.240;8.798;2023-02-20T05:39:14;14.52;;;9.82;;
31764;SDS011;18338;53.240;8.798;2023-02-20T05:41:41;14.23;;;9.77;;
31764;SDS011;18338;53.240;8.798;2023-02-20T05:44:08;14.05;;;10.30;;
31764;SDS011;18338;53.240;8.798;2023-02-20T05:46:39;14.40;;;9.93;;
31764;SDS011;18338;53.240;8.798;2023-02-20T05:49:07;16.45;;;12.05;;
31764;SDS011;18338;53.240;8.798;2023-02-20T05:51:34;19.63;;;11.65;;
31764;SDS011;18338;53.240;8.798;2023-02-20T05:54:02;16.48;;;12.02;;
31764;SDS011;18338;53.240;8.798;2023-02-20T05:56:30;15.25;;;11.48;;
31764;SDS011;18338;53.240;8.798;2023-02-20T05:58:58;20.40;;;12.70;;
31764;SDS011;18338;53.240;8.798;2023-02-20T06:01:26;16.48;;;12.85;;
31764;SDS011;18338;53.240;8.798;2023-02-20T06:03:54;17.27;;;13.60;;
31764;SDS011;18338;53.240;8.798;2023-02-20T06:06:21;16.85;;;12.95;;
31764;SDS011;18338;53.240;8.798;2023-02-20T06:08:49;16.90;;;13.30;;
31764;SDS011;18338;53.240;8.798;2023-02-20T06:11:16;20.10;;;13.63;;
31764;SDS011;18338;53.240;8.798;2023-02-20T06:13:43;18.58;;;13.38;;
31764;SDS011;18338;53.240;8.798;2023-02-20T06:16:11;16.75;;;13.05;;
31764;SDS011;18338;53.240;8.798;2023-02-20T06:18:39;15.48;;;10.48;;
31764;SDS011;18338;53.240;8.798;2023-02-20T06:21:09;20.23;;;13.15;;
31764;SDS011;18338;53.240;8.798;2023-02-20T06:23:37;21.08;;;13.60;;
31764;SDS011;18338;53.240;8.798;2023-02-20T06:26:07;15.07;;;11.15;;
31764;SDS011;18338;53.240;8.798;2023-02-20T06:28:36;22.13;;;14.52;;
31764;SDS011;18338;53.240;8.798;2023-02-20T06:31:04;17.77;;;13.88;;
31764;SDS011;18338;53.240;8.798;2023-02-20T06:33:31;19.20;;;14.20;;
31764;SDS011;18338;53.240;8.798;2023-02-20T06:35:58;23.33;;;14.90;;
31764;SDS011;18338;53.240;8.798;2023-02-20T06:38:25;21.02;;;15.75;;
31764;SDS011;18338;53.240;8.798;2023-02-20T06:40:52;18.83;;;15.35;;
31764;SDS011;18338;53.240;8.798;2023-02-20T06:43:19;20.45;;;14.20;;
31764;SDS011;18338;53.240;8.798;2023-02-20T06:45:46;14.20;;;10.68;;
31764;SDS011;18338;53.240;8.798;2023-02-20T06:48:14;24.90;;;15.75;;
31764;SDS011;18338;53.240;8.798;2023-02-20T06:50:46;18.73;;;15.43;;
31764;SDS011;18338;53.240;8.798;2023-02-20T06:53:13;21.45;;;14.40;;
31764;SDS011;18338;53.240;8.798;2023-02-20T06:55:40;22.58;;;16.65;;
31764;SDS011;18338;53.240;8.798;2023-02-20T06:58:07;23.25;;;15.90;;
31764;SDS011;18338;53.240;8.798;2023-02-20T07:00:36;22.90;;;16.23;;
31764;SDS011;18338;53.240;8.798;2023-02-20T07:03:03;20.63;;;15.63;;
31764;SDS011;18338;53.240;8.798;2023-02-20T07:05:29;23.90;;;16.98;;
31764;SDS011;18338;53.240;8.798;2023-02-20T07:08:02;21.98;;;16.42;;
31764;SDS011;18338;53.240;8.798;2023-02-20T07:10:31;22.85;;;15.45;;
31764;SDS011;18338;53.240;8.798;2023-02-20T07:12:59;19.20;;;14.63;;
31764;SDS011;18338;53.240;8.798;2023-02-20T07:15:28;21.83;;;15.32;;
31764;SDS011;18338;53.240;8.798;2023-02-20T07:17:55;23.52;;;15.80;;
31764;SDS011;18338;53.240;8.798;2023-02-20T07:20:21;26.08;;;16.42;;
31764;SDS011;18338;53.240;8.798;2023-02-20T07:22:51;21.88;;;15.85;;
31764;SDS011;18338;53.240;8.798;2023-02-20T07:25:22;21.98;;;16.25;;
31764;SDS011;18338;53.240;8.798;2023-02-20T07:27:49;23.73;;;16.92;;
31764;SDS011;18338;53.240;8.798;2023-02-20T07:30:15;24.30;;;17.63;;
31764;SDS011;18338;53.240;8.798;2023-02-20T07:32:42;26.10;;;16.30;;
31764;SDS011;18338;53.240;8.798;2023-02-20T07:35:09;28.10;;;17.83;;
31764;SDS011;18338;53.240;8.798;2023-02-20T07:37:35;27.42;;;17.10;;
31764;SDS011;18338;53.240;8.798;2023-02-20T07:40:02;26.58;;;16.58;;
31764;SDS011;18338;53.240;8.798;2023-02-20T07:42:29;27.92;;;17.70;;
31764;SDS011;18338;53.240;8.798;2023-02-20T07:44:57;27.75;;;17.10;;
31764;SDS011;18338;53.240;8.798;2023-02-20T07:47:24;24.85;;;17.63;;
31764;SDS011;18338;53.240;8.798;2023-02-20T07:49:51;26.30;;;17.75;;
31764;SDS011;18338;53.240;8.798;2023-02-20T07:52:17;27.85;;;17.63;;
31764;SDS011;18338;53.240;8.798;2023-02-20T07:54:44;26.83;;;17.90;;
31764;SDS011;18338;53.240;8.798;2023-02-20T07:57:11;25.63;;;17.20;;
31764;SDS011;18338;53.240;8.798;2023-02-20T07:59:38;25.05;;;18.10;;
31764;SDS011;18338;53.240;8.798;2023-02-20T08:02:05;26.85;;;15.93;;
31764;SDS011;18338;53.240;8.798;2023-02-20T08:04:32;28.52;;;18.10;;
31764;SDS011;18338;53.240;8.798;2023-02-20T08:06:59;25.73;;;17.55;;
31764;SDS011;18338;53.240;8.798;2023-02-20T08:09:26;30.30;;;17.50;;
31764;SDS011;18338;53.240;8.798;2023-02-20T08:11:52;26.80;;;19.10;;
31764;SDS011;18338;53.240;8.798;2023-02-20T08:14:19;27.08;;;18.10;;
31764;SDS011;18338;53.240;8.798;2023-02-20T08:16:46;29.25;;;17.48;;
31764;SDS011;18338;53.240;8.798;2023-02-20T08:19:13;25.50;;;17.40;;
31764;SDS011;18338;53.240;8.798;2023-02-20T08:21:40;23.88;;;15.52;;
31764;SDS011;18338;53.240;8.798;2023-02-20T08:24:07;26.25;;;16.60;;
31764;SDS011;18338;53.240;8.798;2023-02-20T08:26:33;23.80;;;14.60;;
31764;SDS011;18338;53.240;8.798;2023-02-20T08:29:00;23.17;;;15.02;;
31764;SDS011;18338;53.240;8.798;2023-02-20T08:31:27;23.95;;;16.08;;
31764;SDS011;18338;53.240;8.798;2023-02-20T08:33:58;24.67;;;14.63;;
31764;SDS011;18338;53.240;8.798;2023-02-20T08:36:25;26.35;;;16.73;;
31764;SDS011;18338;53.240;8.798;2023-02-20T08:38:52;26.17;;;16.02;;
31764;SDS011;18338;53.240;8.798;2023-02-20T08:41:20;28.60;;;16.00;;
31764;SDS011;18338;53.240;8.798;2023-02-20T08:43:46;26.40;;;16.25;;
31764;SDS011;18338;53.240;8.798;2023-02-20T08:46:13;24.02;;;14.95;;
31764;SDS011;18338;53.240;8.798;2023-02-20T08:48:41;24.58;;;15.93;;
31764;SDS011;18338;53.240;8.798;2023-02-20T08:51:08;25.42;;;15.60;;
31764;SDS011;18338;53.240;8.798;2023-02-20T08:53:36;28.15;;;16.05;;
31764;SDS011;18338;53.240;8.798;2023-02-20T08:56:07;23.25;;;14.68;;
31764;SDS011;18338;53.240;8.798;2023-02-20T08:58:35;28.33;;;17.80;;
31764;SDS011;18338;53.240;8.798;2023-02-20T09:01:01;25.45;;;17.48;;
31764;SDS011;18338;53.240;8.798;2023-02-20T09:03:29;28.17;;;17.27;;
31764;SDS011;18338;53.240;8.798;2023-02-20T09:05:56;26.48;;;17.25;;
31764;SDS011;18338;53.240;8.798;2023-02-20T09:08:22;25.05;;;15.68;;
31764;SDS011;18338;53.240;8.798;2023-02-20T09:10:49;25.33;;;17.20;;
31764;SDS011;18338;53.240;8.798;2023-02-20T09:13:16;32.08;;;19.27;;
31764;SDS011;18338;53.240;8.798;2023-02-20T09:15:43;28.67;;;17.25;;
31764;SDS011;18338;53.240;8.798;2023-02-20T09:18:10;29.23;;;17.02;;
31764;SDS011;18338;53.240;8.798;2023-02-20T09:20:39;25.98;;;17.48;;
31764;SDS011;18338;53.240;8.798;2023-02-20T09:23:06;26.77;;;16.45;;
31764;SDS011;18338;53.240;8.798;2023-02-20T09:25:34;25.80;;;16.10;;
31764;SDS011;18338;53.240;8.798;2023-02-20T09:28:01;24.67;;;13.23;;
31764;SDS011;18338;53.240;8.798;2023-02-20T09:30:29;24.95;;;15.35;;
31764;SDS011;18338;53.240;8.798;2023-02-20T09:32:55;19.67;;;14.35;;
31764;SDS011;18338;53.240;8.798;2023-02-20T09:35:24;22.30;;;13.98;;
31764;SDS011;18338;53.240;8.798;2023-02-20T09:37:52;23.88;;;15.85;;
31764;SDS011;18338;53.240;8.798;2023-02-20T09:40:20;21.48;;;13.80;;
31764;SDS011;18338;53.240;8.798;2023-02-20T09:45:30;23.00;;;13.15;;
31764;SDS011;18338;53.240;8.798;2023-02-20T09:50:40;19.23;;;11.23;;
31764;SDS011;18338;53.240;8.798;2023-02-20T09:55:51;19.30;;;12.80;;
31764;SDS011;18338;53.240;8.798;2023-02-20T10:01:08;18.38;;;11.07;;
31764;SDS011;18338;53.240;8.798;2023-02-20T10:03:46;18.55;;;10.85;;
31764;SDS011;18338;53.240;8.798;2023-02-20T10:06:24;17.27;;;10.98;;
31764;SDS011;18338;53.240;8.798;2023-02-20T10:08:53;16.08;;;10.50;;
31764;SDS011;18338;53.240;8.798;2023-02-20T10:20:11;19.13;;;10.05;;
31764;SDS011;18338;53.240;8.798;2023-02-20T10:23:02;13.95;;;8.20;;
31764;SDS011;18338;53.240;8.798;2023-02-20T10:25:50;14.18;;;8.90;;
31764;SDS011;18338;53.240;8.798;2023-02-20T10:28:21;9.13;;;7.25;;
31764;SDS011;18338;53.240;8.798;2023-02-20T10:30:56;10.55;;;7.68;;
31764;SDS011;18338;53.240;8.798;2023-02-20T10:33:41;15.90;;;8.63;;
31764;SDS011;18338;53.240;8.798;2023-02-20T10:38:53;14.57;;;8.32;;
31764;SDS011;18338;53.240;8.798;2023-02-20T10:41:40;14.48;;;8.02;;
31764;SDS011;18338;53.240;8.798;2023-02-20T10:44:57;12.43;;;8.10;;
31764;SDS011;18338;53.240;8.798;2023-02-20T10:47:35;13.55;;;8.55;;
31764;SDS011;18338;53.240;8.798;2023-02-20T10:52:51;12.82;;;7.60;;
31764;SDS011;18338;53.240;8.798;2023-02-20T10:55:28;12.00;;;7.45;;
31764;SDS011;18338;53.240;8.798;2023-02-20T10:58:05;14.23;;;7.50;;
31764;SDS011;18338;53.240;8.798;2023-02-20T11:00:41;12.18;;;6.88;;
31764;SDS011;18338;53.240;8.798;2023-02-20T11:03:22;7.75;;;5.82;;
31764;SDS011;18338;53.240;8.798;2023-02-20T11:05:57;10.95;;;7.28;;
31764;SDS011;18338;53.240;8.798;2023-02-20T11:08:27;12.45;;;7.30;;
31764;SDS011;18338;53.240;8.798;2023-02-20T11:10:59;11.85;;;7.28;;
31764;SDS011;18338;53.240;8.798;2023-02-20T11:13:44;12.25;;;6.97;;
31764;SDS011;18338;53.240;8.798;2023-02-20T11:16:16;10.38;;;6.15;;
31764;SDS011;18338;53.240;8.798;2023-02-20T11:19:00;16.02;;;7.43;;
31764;SDS011;18338;53.240;8.798;2023-02-20T11:24:26;9.30;;;5.95;;
31764;SDS011;18338;53.240;8.798;2023-02-20T11:27:00;10.00;;;6.45;;
31764;SDS011;18338;53.240;8.798;2023-02-20T11:29:32;7.95;;;5.75;;
31764;SDS011;18338;53.240;8.798;2023-02-20T11:35:14;9.70;;;5.30;;
31764;SDS011;18338;53.240;8.798;2023-02-20T11:37:50;7.97;;;5.32;;
31764;SDS011;18338;53.240;8.798;2023-02-20T11:44:03;9.43;;;5.63;;
31764;SDS011;18338;53.240;8.798;2023-02-20T11:46:26;8.63;;;5.05;;
31764;SDS011;18338;53.240;8.798;2023-02-20T11:54:35;7.65;;;4.95;;
31764;SDS011;18338;53.240;8.798;2023-02-20T11:57:05;9.70;;;5.82;;
31764;SDS011;18338;53.240;8.798;2023-02-20T11:59:44;7.38;;;5.38;;
31764;SDS011;18338;53.240;8.798;2023-02-20T12:04:59;10.85;;;6.60;;
31764;SDS011;18338;53.240;8.798;2023-02-20T12:12:44;7.32;;;4.25;;
31764;SDS011;18338;53.240;8.798;2023-02-20T12:15:12;5.55;;;3.67;;
31764;SDS011;18338;53.240;8.798;2023-02-20T12:20:26;10.10;;;6.43;;
31764;SDS011;18338;53.240;8.798;2023-02-20T12:28:16;7.72;;;4.72;;
31764;SDS011;18338;53.240;8.798;2023-02-20T12:31:10;8.40;;;4.88;;
31764;SDS011;18338;53.240;8.798;2023-02-20T12:36:46;19.05;;;4.55;;
31764;SDS011;18338;53.240;8.798;2023-02-20T12:47:40;11.52;;;7.38;;
31764;SDS011;18338;53.240;8.798;2023-02-20T12:50:37;13.43;;;9.00;;
31764;SDS011;18338;53.240;8.798;2023-02-20T12:53:12;15.88;;;10.07;;
31764;SDS011;18338;53.240;8.798;2023-02-20T12:56:12;10.68;;;5.75;;
31764;SDS011;18338;53.240;8.798;2023-02-20T12:59:02;11.38;;;7.40;;
31764;SDS011;18338;53.240;8.798;2023-02-20T13:01:49;16.15;;;9.38;;
31764;SDS011;18338;53.240;8.798;2023-02-20T13:04:24;12.20;;;6.78;;
31764;SDS011;18338;53.240;8.798;2023-02-20T13:07:09;14.05;;;7.03;;
31764;SDS011;18338;53.240;8.798;2023-02-20T13:09:44;9.98;;;5.78;;
31764;SDS011;18338;53.240;8.798;2023-02-20T13:12:39;8.13;;;5.68;;
31764;SDS011;18338;53.240;8.798;2023-02-20T13:15:12;8.00;;;4.80;;
31764;SDS011;18338;53.240;8.798;2023-02-20T13:20:20;9.07;;;4.72;;
31764;SDS011;18338;53.240;8.798;2023-02-20T13:22:57;11.13;;;6.03;;
31764;SDS011;18338;53.240;8.798;2023-02-20T13:31:05;8.70;;;5.60;;
31764;SDS011;18338;53.240;8.798;2023-02-20T13:33:47;8.27;;;4.93;;
31764;SDS011;18338;53.240;8.798;2023-02-20T13:36:16;8.63;;;4.80;;
31764;SDS011;18338;53.240;8.798;2023-02-20T13:49:53;10.05;;;5.10;;
31764;SDS011;18338;53.240;8.798;2023-02-20T14:02:54;10.23;;;5.03;;
31764;SDS011;18338;53.240;8.798;2023-02-20T14:05:23;8.70;;;4.63;;
31764;SDS011;18338;53.240;8.798;2023-02-20T14:07:56;9.43;;;6.00;;
31764;SDS011;18338;53.240;8.798;2023-02-20T14:10:29;9.52;;;5.30;;
31764;SDS011;18338;53.240;8.798;2023-02-20T14:13:11;7.68;;;4.78;;
31764;SDS011;18338;53.240;8.798;2023-02-20T14:16:20;9.27;;;4.95;;
31764;SDS011;18338;53.240;8.798;2023-02-20T14:18:48;8.10;;;5.15;;
31764;SDS011;18338;53.240;8.798;2023-02-20T14:21:16;9.55;;;5.03;;
31764;SDS011;18338;53.240;8.798;2023-02-20T14:23:48;10.75;;;6.20;;
31764;SDS011;18338;53.240;8.798;2023-02-20T14:28:48;9.55;;;5.20;;
31764;SDS011;18338;53.240;8.798;2023-02-20T14:31:24;9.30;;;5.35;;
31764;SDS011;18338;53.240;8.798;2023-02-20T14:39:39;6.28;;;4.50;;
31764;SDS011;18338;53.240;8.798;2023-02-20T14:42:14;8.88;;;4.72;;
31764;SDS011;18338;53.240;8.798;2023-02-20T14:44:49;11.18;;;4.63;;
31764;SDS011;18338;53.240;8.798;2023-02-20T14:47:21;8.02;;;3.83;;
31764;SDS011;18338;53.240;8.798;2023-02-20T14:49:49;7.75;;;4.40;;
31764;SDS011;18338;53.240;8.798;2023-02-20T14:52:18;6.70;;;3.80;;
31764;SDS011;18338;53.240;8.798;2023-02-20T14:54:57;8.65;;;4.50;;
31764;SDS011;18338;53.240;8.798;2023-02-20T14:57:26;8.68;;;4.55;;
31764;SDS011;18338;53.240;8.798;2023-02-20T15:02:44;10.43;;;4.68;;
31764;SDS011;18338;53.240;8.798;2023-02-20T15:05:28;11.48;;;4.68;;
31764;SDS011;18338;53.240;8.798;2023-02-20T15:08:00;7.10;;;4.15;;
31764;SDS011;18338;53.240;8.798;2023-02-20T15:10:44;13.63;;;5.32;;
31764;SDS011;18338;53.240;8.798;2023-02-20T15:13:14;8.43;;;3.70;;
31764;SDS011;18338;53.240;8.798;2023-02-20T15:15:45;9.95;;;4.75;;
31764;SDS011;18338;53.240;8.798;2023-02-20T15:18:31;6.25;;;3.70;;
31764;SDS011;18338;53.240;8.798;2023-02-20T15:21:00;7.90;;;4.68;;
31764;SDS011;18338;53.240;8.798;2023-02-20T15:23:40;8.77;;;4.25;;
31764;SDS011;18338;53.240;8.798;2023-02-20T15:26:28;7.97;;;4.43;;
31764;SDS011;18338;53.240;8.798;2023-02-20T15:31:55;9.07;;;4.13;;
31764;SDS011;18338;53.240;8.798;2023-02-20T15:34:33;7.30;;;3.70;;
31764;SDS011;18338;53.240;8.798;2023-02-20T15:37:23;9.20;;;4.18;;
31764;SDS011;18338;53.240;8.798;2023-02-20T15:42:46;7.97;;;4.30;;
31764;SDS011;18338;53.240;8.798;2023-02-20T15:45:13;6.05;;;3.28;;
31764;SDS011;18338;53.240;8.798;2023-02-20T15:47:40;7.28;;;4.03;;
31764;SDS011;18338;53.240;8.798;2023-02-20T15:50:07;7.63;;;4.05;;
31764;SDS011;18338;53.240;8.798;2023-02-20T15:52:34;7.70;;;3.58;;
31764;SDS011;18338;53.240;8.798;2023-02-20T15:55:01;9.93;;;4.40;;
31764;SDS011;18338;53.240;8.798;2023-02-20T15:57:28;7.13;;;4.07;;
31764;SDS011;18338;53.240;8.798;2023-02-20T15:59:55;8.07;;;4.40;;
31764;SDS011;18338;53.240;8.798;2023-02-20T16:02:22;7.45;;;4.05;;
31764;SDS011;18338;53.240;8.798;2023-02-20T16:04:50;8.13;;;3.88;;
31764;SDS011;18338;53.240;8.798;2023-02-20T16:07:18;6.32;;;3.97;;
31764;SDS011;18338;53.240;8.798;2023-02-20T16:09:45;8.27;;;4.28;;
31764;SDS011;18338;53.240;8.798;2023-02-20T16:12:13;8.43;;;4.40;;
31764;SDS011;18338;53.240;8.798;2023-02-20T16:14:43;6.53;;;4.03;;
31764;SDS011;18338;53.240;8.798;2023-02-20T16:17:12;9.05;;;4.22;;
31764;SDS011;18338;53.240;8.798;2023-02-20T16:19:45;8.55;;;4.55;;
31764;SDS011;18338;53.240;8.798;2023-02-20T16:22:12;7.60;;;4.00;;
31764;SDS011;18338;53.240;8.798;2023-02-20T16:24:38;10.38;;;4.28;;
31764;SDS011;18338;53.240;8.798;2023-02-20T16:27:09;8.77;;;4.88;;
31764;SDS011;18338;53.240;8.798;2023-02-20T16:29:50;10.63;;;4.38;;
31764;SDS011;18338;53.240;8.798;2023-02-20T16:32:25;7.38;;;4.50;;
31764;SDS011;18338;53.240;8.798;2023-02-20T16:34:53;7.35;;;3.40;;
31764;SDS011;18338;53.240;8.798;2023-02-20T16:37:22;9.60;;;4.65;;
31764;SDS011;18338;53.240;8.798;2023-02-20T16:39:50;9.38;;;5.30;;
31764;SDS011;18338;53.240;8.798;2023-02-20T16:42:18;9.82;;;4.75;;
31764;SDS011;18338;53.240;8.798;2023-02-20T16:44:48;9.80;;;4.80;;
31764;SDS011;18338;53.240;8.798;2023-02-20T16:47:18;9.98;;;5.15;;
31764;SDS011;18338;53.240;8.798;2023-02-20T16:49:47;13.07;;;5.82;;
31764;SDS011;18338;53.240;8.798;2023-02-20T16:52:15;8.95;;;5.90;;
31764;SDS011;18338;53.240;8.798;2023-02-20T16:54:47;13.40;;;6.18;;
31764;SDS011;18338;53.240;8.798;2023-02-20T16:57:15;8.55;;;5.82;;
31764;SDS011;18338;53.240;8.798;2023-02-20T16:59:42;9.48;;;6.15;;
31764;SDS011;18338;53.240;8.798;2023-02-20T17:02:14;8.95;;;5.45;;
31764;SDS011;18338;53.240;8.798;2023-02-20T17:04:42;12.27;;;6.43;;
31764;SDS011;18338;53.240;8.798;2023-02-20T17:07:10;12.15;;;7.80;;
31764;SDS011;18338;53.240;8.798;2023-02-20T17:09:37;12.70;;;6.95;;
31764;SDS011;18338;53.240;8.798;2023-02-20T17:12:11;17.27;;;7.30;;
31764;SDS011;18338;53.240;8.798;2023-02-20T17:14:38;11.43;;;6.95;;
31764;SDS011;18338;53.240;8.798;2023-02-20T17:17:05;11.50;;;7.00;;
31764;SDS011;18338;53.240;8.798;2023-02-20T17:19:35;12.68;;;7.80;;
31764;SDS011;18338;53.240;8.798;2023-02-20T17:22:03;11.82;;;7.75;;